Providence — SVAW2 — position and weather

sailwx.info

Track history (hours):
 
Tides and Currents Weather Stations Pressure Air Temp Water Temp Dewpoint Dewpoint Depression Visibility Wind Speed Wind Dir Waves Ship Positions

Providence

Last reported at 2018-Jul-20 10:30 UTC. Time now 2018-Jul-20 10:49 UTC.
Position N 43°54' E 029°01'.

Length 103 m; draft 4.5 m.

Type: Tanker. MMSI: 240966000.

Date/timePositionNaut miles runAvg speedWind from/ knotsBaromVisibWave heightAir tempDewpointWater temp
2018-Jul-20 10:30N 43°54' E 029°01'5 9.9
2018-Jul-20 10:00N 43°49' E 029°01'5 9.9
2018-Jul-20 09:30N 43°44' E 029°02'5 9.9
2018-Jul-20 09:01N 43°39' E 029°02'219 4.3
2018-Jul-18 05:54N 40°50' E 025°55'0 0.1
2018-Jul-18 05:30N 40°50' E 025°55'0 0.0
2018-Jul-18 04:50N 40°50' E 025°55'0 0.0
2018-Jul-18 01:26N 40°50' E 025°55'0 0.0
2018-Jul-18 00:57N 40°50' E 025°55'0 0.0
2018-Jul-18 00:29N 40°50' E 025°55'0 0.0
2018-Jul-18 00:00N 40°50' E 025°55'0 0.0
2018-Jul-17 23:28N 40°50' E 025°55'0 0.0
2018-Jul-17 23:00N 40°50' E 025°55'0 0.0
2018-Jul-17 22:30N 40°50' E 025°55'0 0.0
2018-Jul-17 22:00N 40°50' E 025°55'0 0.0
2018-Jul-17 21:30N 40°50' E 025°55'0 0.0
2018-Jul-17 21:00N 40°50' E 025°55'0 0.0
2018-Jul-17 20:30N 40°50' E 025°55'0 0.0
2018-Jul-17 19:42N 40°50' E 025°55'0 0.0
2018-Jul-17 18:23N 40°50' E 025°55'0 0.0
2018-Jul-17 17:19N 40°50' E 025°55'0 0.0
2018-Jul-17 16:53N 40°50' E 025°55'0 0.0
2018-Jul-17 13:43N 40°50' E 025°55'15 8.1
2018-Jul-17 11:49N 40°48' E 025°35'311.0
2018-Jul-17 11:30N 40°48' E 025°30'1211.0
2018-Jul-17 10:22N 40°48' E 025°14'410.6
2018-Jul-17 10:00N 40°49' E 025°09'510.4
2018-Jul-17 09:30N 40°49' E 025°02'510.4
2018-Jul-17 09:00N 40°48' E 024°55'510.1
2018-Jul-17 08:30N 40°48' E 024°48'510.3
2018-Jul-17 08:00N 40°49' E 024°42'5 9.9
2018-Jul-17 07:30N 40°50' E 024°35'5 9.4
2018-Jul-17 07:00N 40°54' E 024°32'3 6.0
2018-Jul-17 06:30N 40°57' E 024°33'0 0.1
2018-Jul-17 06:00N 40°57' E 024°33'0 0.0
2018-Jul-17 05:30N 40°57' E 024°33'0 0.0
2018-Jul-17 05:00N 40°57' E 024°33'0 0.0
2018-Jul-17 04:30N 40°57' E 024°33'0 0.0
2018-Jul-17 04:00N 40°57' E 024°33'0 0.0
2018-Jul-17 03:30N 40°57' E 024°33'0 0.0
2018-Jul-17 03:00N 40°57' E 024°33'0 0.0
2018-Jul-17 02:30N 40°57' E 024°33'0 0.0
2018-Jul-17 02:00N 40°57' E 024°33'0 0.0
2018-Jul-17 01:30N 40°57' E 024°33'0 0.0
2018-Jul-17 01:00N 40°57' E 024°33'0 0.0
2018-Jul-17 00:30N 40°57' E 024°33'0 0.0
2018-Jul-16 23:30N 40°57' E 024°33'0 0.0
2018-Jul-16 23:00N 40°57' E 024°33'0 0.0
2018-Jul-16 22:30N 40°57' E 024°33'0 0.0
2018-Jul-16 22:00N 40°57' E 024°33'0 0.0
2018-Jul-16 21:30N 40°57' E 024°33'0 0.0
2018-Jul-16 21:00N 40°57' E 024°33'0 0.0
2018-Jul-16 20:30N 40°57' E 024°33'0 0.0
2018-Jul-16 20:00N 40°57' E 024°33'0 0.0
2018-Jul-16 19:30N 40°57' E 024°33'0 0.0
2018-Jul-16 19:00N 40°57' E 024°33'0 0.0
2018-Jul-16 18:30N 40°57' E 024°33'0 0.0
2018-Jul-16 18:00N 40°57' E 024°33'0 0.0
2018-Jul-16 17:30N 40°57' E 024°33'0 0.0
2018-Jul-16 17:00N 40°57' E 024°33'0 0.0
2018-Jul-16 16:30N 40°57' E 024°33'0 0.0
2018-Jul-16 16:00N 40°57' E 024°33'0 0.0
2018-Jul-16 15:30N 40°57' E 024°33'0 0.0
2018-Jul-16 15:00N 40°57' E 024°33'0 0.0
2018-Jul-16 14:30N 40°57' E 024°33'0 0.0
2018-Jul-16 14:00N 40°57' E 024°33'0 0.0
2018-Jul-16 13:30N 40°57' E 024°33'0 0.0
2018-Jul-16 13:00N 40°57' E 024°33'0 0.0
2018-Jul-16 12:30N 40°57' E 024°33'0 0.0
2018-Jul-16 12:00N 40°57' E 024°33'0 0.0
2018-Jul-16 11:30N 40°57' E 024°33'0 0.0
2018-Jul-16 10:59N 40°57' E 024°33'0 0.0
2018-Jul-16 10:31N 40°57' E 024°33'0 0.0
2018-Jul-16 10:01N 40°57' E 024°33'0 0.0
2018-Jul-16 09:30N 40°57' E 024°33'0 0.0
2018-Jul-16 09:00N 40°57' E 024°33'0 0.0
2018-Jul-16 08:30N 40°57' E 024°33'0 0.0
2018-Jul-16 08:00N 40°57' E 024°33'1 1.6
2018-Jul-16 07:30N 40°57' E 024°32'3 5.4
2018-Jul-16 07:00N 40°56' E 024°29'2 4.4
2018-Jul-16 06:30N 40°53' E 024°28'5 9.4
2018-Jul-16 06:00N 40°49' E 024°27'5 9.6
2018-Jul-16 05:30N 40°44' E 024°26'5 9.1
2018-Jul-16 05:00N 40°40' E 024°26'5 9.2
2018-Jul-16 04:30N 40°35' E 024°27'5 9.4
2018-Jul-16 04:00N 40°33' E 024°33'5 9.4
2018-Jul-16 03:30N 40°30' E 024°38'5 9.6
2018-Jul-16 03:00N 40°28' E 024°44'5 9.9
2018-Jul-16 02:30N 40°25' E 024°49'510.2
2018-Jul-16 02:00N 40°23' E 024°55'710.4
2018-Jul-16 01:22N 40°20' E 025°03'410.3
2018-Jul-16 01:00N 40°18' E 025°07'1010.0
2018-Jul-16 00:00N 40°13' E 025°18'510.2
2018-Jul-15 23:28N 40°10' E 025°24'5 9.9
2018-Jul-15 22:56N 40°07' E 025°30'4 9.3
2018-Jul-15 22:30N 40°05' E 025°35'5 9.0
2018-Jul-15 22:00N 40°03' E 025°40'4 8.4
2018-Jul-15 21:30N 40°02' E 025°45'  
2018-Jul-13 11:25N 43°14' E 029°01'5 9.5
2018-Jul-13 10:53N 43°19' E 029°01'5 9.5
2018-Jul-13 10:25N 43°23' E 029°02'4 9.5
2018-Jul-13 10:00N 43°27' E 029°02'5 9.3
2018-Jul-13 09:30N 43°32' E 029°02'5 9.3
2018-Jul-13 09:00N 43°37' E 029°02'5 9.3
2018-Jul-13 08:30N 43°41' E 029°01'5 9.0
2018-Jul-13 08:00N 43°46' E 029°01'5 9.0
2018-Jul-13 07:30N 43°50' E 029°01'4 9.0
2018-Jul-13 07:00N 43°55' E 029°01'5 9.1
2018-Jul-13 06:30N 43°59' E 029°00'5 9.3
2018-Jul-13 06:00N 44°04' E 029°00'5 9.2
2018-Jul-13 05:30N 44°07' E 028°56'5 9.2
2018-Jul-13 05:00N 44°11' E 028°52'5 9.2
2018-Jul-13 04:30N 44°14' E 028°47'5 9.3
2018-Jul-13 04:00N 44°17' E 028°43'3 6.1
2018-Jul-13 03:30N 44°20' E 028°40'0 0.3
2018-Jul-13 03:00N 44°20' E 028°40'0 0.0
2018-Jul-13 02:30N 44°20' E 028°40'0 0.0
2018-Jul-13 02:00N 44°20' E 028°40'0 0.0
2018-Jul-13 01:30N 44°20' E 028°40'0 0.0
2018-Jul-13 01:00N 44°20' E 028°40'0 0.0
2018-Jul-13 00:30N 44°20' E 028°40'0 0.0
2018-Jul-13 00:00N 44°20' E 028°40'0 0.0
2018-Jul-12 23:30N 44°20' E 028°40'0 0.0
2018-Jul-12 23:00N 44°20' E 028°40'0 0.0
2018-Jul-12 22:30N 44°20' E 028°40'0 0.0
2018-Jul-12 22:00N 44°20' E 028°40'0 0.0
2018-Jul-12 21:30N 44°20' E 028°40'0 0.0
2018-Jul-12 21:00N 44°20' E 028°40'0 0.0
2018-Jul-12 20:30N 44°20' E 028°40'0 0.0
2018-Jul-12 20:00N 44°20' E 028°40'0 0.0
2018-Jul-12 19:30N 44°20' E 028°40'0 0.0
2018-Jul-12 19:00N 44°20' E 028°40'0 0.0
2018-Jul-12 18:29N 44°20' E 028°40'0 0.0
2018-Jul-12 18:00N 44°20' E 028°40'0 0.0
2018-Jul-12 17:30N 44°20' E 028°40'0 0.0
2018-Jul-12 17:00N 44°20' E 028°40'0 0.0
2018-Jul-12 16:30N 44°20' E 028°40'0 0.0
2018-Jul-12 16:00N 44°20' E 028°40'0 0.0
2018-Jul-12 15:30N 44°20' E 028°40'0 0.0
2018-Jul-12 15:00N 44°20' E 028°40'0 0.0
2018-Jul-12 14:30N 44°20' E 028°40'0 0.0
2018-Jul-12 14:00N 44°20' E 028°40'0 0.0
2018-Jul-12 13:30N 44°20' E 028°40'0 0.0
2018-Jul-12 13:00N 44°20' E 028°40'0 0.0
2018-Jul-12 12:30N 44°20' E 028°40'0 0.0
2018-Jul-12 12:00N 44°20' E 028°40'0 0.0
2018-Jul-12 11:30N 44°20' E 028°40'0 0.0
2018-Jul-12 11:00N 44°20' E 028°40'0 0.0
2018-Jul-12 10:30N 44°20' E 028°40'0 0.0
2018-Jul-12 10:00N 44°20' E 028°40'0 0.0
2018-Jul-12 09:30N 44°20' E 028°40'0 0.0
2018-Jul-12 09:00N 44°20' E 028°40'0 0.0
2018-Jul-12 08:30N 44°20' E 028°40'0 0.0
2018-Jul-12 08:00N 44°20' E 028°40'0 0.0
2018-Jul-12 07:30N 44°20' E 028°40'0 0.0
2018-Jul-12 07:00N 44°20' E 028°40'0 0.0
2018-Jul-12 06:30N 44°20' E 028°40'0 0.0
2018-Jul-12 06:00N 44°20' E 028°40'0 0.0
2018-Jul-12 05:30N 44°20' E 028°40'0 0.0
2018-Jul-12 05:00N 44°20' E 028°40'0 0.0
2018-Jul-12 04:30N 44°20' E 028°40'0 0.0
2018-Jul-12 04:00N 44°20' E 028°40'0 0.0
2018-Jul-12 03:30N 44°20' E 028°40'0 0.0
2018-Jul-12 03:00N 44°20' E 028°40'0 0.0
2018-Jul-12 02:30N 44°20' E 028°40'0 0.0
2018-Jul-12 02:00N 44°20' E 028°40'0 0.0
2018-Jul-12 01:30N 44°20' E 028°40'0 0.0
2018-Jul-12 01:00N 44°20' E 028°40'0 0.0
2018-Jul-12 00:30N 44°20' E 028°40'0 0.1
2018-Jul-12 00:00N 44°20' E 028°40'1 1.7
2018-Jul-11 23:30N 44°20' E 028°41'3 5.5
2018-Jul-11 23:00N 44°17' E 028°44'1 3.0
2018-Jul-11 22:30N 44°16' E 028°45'0 0.5
2018-Jul-11 22:00N 44°17' E 028°45'0 1.0
2018-Jul-11 21:30N 44°16' E 028°45'5 9.8
2018-Jul-11 21:00N 44°13' E 028°50'510.1
2018-Jul-11 20:30N 44°09' E 028°54'510.1
2018-Jul-11 20:00N 44°05' E 028°59'510.7
2018-Jul-11 19:30N 43°59' E 028°60'510.7
2018-Jul-11 19:00N 43°54' E 029°01'510.8
2018-Jul-11 18:30N 43°49' E 029°02'510.7
2018-Jul-11 18:00N 43°43' E 029°02'510.7
2018-Jul-11 17:30N 43°38' E 029°02'  
Track history (hours):
 
Tides and Currents Weather Stations Pressure Air Temp Water Temp Dewpoint Dewpoint Depression Visibility Wind Speed Wind Dir Waves Ship Positions

Providence

Last reported at 2018-Jul-20 10:30 UTC. Time now 2018-Jul-20 10:49 UTC.
Position N 43°54' E 029°01'.

Length 103 m; draft 4.5 m.

Type: Tanker. MMSI: 240966000.

Date/timePositionNaut miles runAvg speedWind from/ knotsBaromVisibWave heightAir tempDewpointWater temp
2018-Jul-20 10:30N 43°54' E 029°01'5 9.9
2018-Jul-20 10:00N 43°49' E 029°01'5 9.9
2018-Jul-20 09:30N 43°44' E 029°02'5 9.9
2018-Jul-20 09:01N 43°39' E 029°02'219 4.3
2018-Jul-18 05:54N 40°50' E 025°55'0 0.1
2018-Jul-18 05:30N 40°50' E 025°55'0 0.0
2018-Jul-18 04:50N 40°50' E 025°55'0 0.0
2018-Jul-18 01:26N 40°50' E 025°55'0 0.0
2018-Jul-18 00:57N 40°50' E 025°55'0 0.0
2018-Jul-18 00:29N 40°50' E 025°55'0 0.0
2018-Jul-18 00:00N 40°50' E 025°55'0 0.0
2018-Jul-17 23:28N 40°50' E 025°55'0 0.0
2018-Jul-17 23:00N 40°50' E 025°55'0 0.0
2018-Jul-17 22:30N 40°50' E 025°55'0 0.0
2018-Jul-17 22:00N 40°50' E 025°55'0 0.0
2018-Jul-17 21:30N 40°50' E 025°55'0 0.0
2018-Jul-17 21:00N 40°50' E 025°55'0 0.0
2018-Jul-17 20:30N 40°50' E 025°55'0 0.0
2018-Jul-17 19:42N 40°50' E 025°55'0 0.0
2018-Jul-17 18:23N 40°50' E 025°55'0 0.0
2018-Jul-17 17:19N 40°50' E 025°55'0 0.0
2018-Jul-17 16:53N 40°50' E 025°55'0 0.0
2018-Jul-17 13:43N 40°50' E 025°55'15 8.1
2018-Jul-17 11:49N 40°48' E 025°35'311.0
2018-Jul-17 11:30N 40°48' E 025°30'1211.0
2018-Jul-17 10:22N 40°48' E 025°14'410.6
2018-Jul-17 10:00N 40°49' E 025°09'510.4
2018-Jul-17 09:30N 40°49' E 025°02'510.4
2018-Jul-17 09:00N 40°48' E 024°55'510.1
2018-Jul-17 08:30N 40°48' E 024°48'510.3
2018-Jul-17 08:00N 40°49' E 024°42'5 9.9
2018-Jul-17 07:30N 40°50' E 024°35'5 9.4
2018-Jul-17 07:00N 40°54' E 024°32'3 6.0
2018-Jul-17 06:30N 40°57' E 024°33'0 0.1
2018-Jul-17 06:00N 40°57' E 024°33'0 0.0
2018-Jul-17 05:30N 40°57' E 024°33'0 0.0
2018-Jul-17 05:00N 40°57' E 024°33'0 0.0
2018-Jul-17 04:30N 40°57' E 024°33'0 0.0
2018-Jul-17 04:00N 40°57' E 024°33'0 0.0
2018-Jul-17 03:30N 40°57' E 024°33'0 0.0
2018-Jul-17 03:00N 40°57' E 024°33'0 0.0
2018-Jul-17 02:30N 40°57' E 024°33'0 0.0
2018-Jul-17 02:00N 40°57' E 024°33'0 0.0
2018-Jul-17 01:30N 40°57' E 024°33'0 0.0
2018-Jul-17 01:00N 40°57' E 024°33'0 0.0
2018-Jul-17 00:30N 40°57' E 024°33'0 0.0
2018-Jul-16 23:30N 40°57' E 024°33'0 0.0
2018-Jul-16 23:00N 40°57' E 024°33'0 0.0
2018-Jul-16 22:30N 40°57' E 024°33'0 0.0
2018-Jul-16 22:00N 40°57' E 024°33'0 0.0
2018-Jul-16 21:30N 40°57' E 024°33'0 0.0
2018-Jul-16 21:00N 40°57' E 024°33'0 0.0
2018-Jul-16 20:30N 40°57' E 024°33'0 0.0
2018-Jul-16 20:00N 40°57' E 024°33'0 0.0
2018-Jul-16 19:30N 40°57' E 024°33'0 0.0
2018-Jul-16 19:00N 40°57' E 024°33'0 0.0
2018-Jul-16 18:30N 40°57' E 024°33'0 0.0
2018-Jul-16 18:00N 40°57' E 024°33'0 0.0
2018-Jul-16 17:30N 40°57' E 024°33'0 0.0
2018-Jul-16 17:00N 40°57' E 024°33'0 0.0
2018-Jul-16 16:30N 40°57' E 024°33'0 0.0
2018-Jul-16 16:00N 40°57' E 024°33'0 0.0
2018-Jul-16 15:30N 40°57' E 024°33'0 0.0
2018-Jul-16 15:00N 40°57' E 024°33'0 0.0
2018-Jul-16 14:30N 40°57' E 024°33'0 0.0
2018-Jul-16 14:00N 40°57' E 024°33'0 0.0
2018-Jul-16 13:30N 40°57' E 024°33'0 0.0
2018-Jul-16 13:00N 40°57' E 024°33'0 0.0
2018-Jul-16 12:30N 40°57' E 024°33'0 0.0
2018-Jul-16 12:00N 40°57' E 024°33'0 0.0
2018-Jul-16 11:30N 40°57' E 024°33'0 0.0
2018-Jul-16 10:59N 40°57' E 024°33'0 0.0
2018-Jul-16 10:31N 40°57' E 024°33'0 0.0
2018-Jul-16 10:01N 40°57' E 024°33'0 0.0
2018-Jul-16 09:30N 40°57' E 024°33'0 0.0
2018-Jul-16 09:00N 40°57' E 024°33'0 0.0
2018-Jul-16 08:30N 40°57' E 024°33'0 0.0
2018-Jul-16 08:00N 40°57' E 024°33'1 1.6
2018-Jul-16 07:30N 40°57' E 024°32'3 5.4
2018-Jul-16 07:00N 40°56' E 024°29'2 4.4
2018-Jul-16 06:30N 40°53' E 024°28'5 9.4
2018-Jul-16 06:00N 40°49' E 024°27'5 9.6
2018-Jul-16 05:30N 40°44' E 024°26'5 9.1
2018-Jul-16 05:00N 40°40' E 024°26'5 9.2
2018-Jul-16 04:30N 40°35' E 024°27'5 9.4
2018-Jul-16 04:00N 40°33' E 024°33'5 9.4
2018-Jul-16 03:30N 40°30' E 024°38'5 9.6
2018-Jul-16 03:00N 40°28' E 024°44'5 9.9
2018-Jul-16 02:30N 40°25' E 024°49'510.2
2018-Jul-16 02:00N 40°23' E 024°55'710.4
2018-Jul-16 01:22N 40°20' E 025°03'410.3
2018-Jul-16 01:00N 40°18' E 025°07'1010.0
2018-Jul-16 00:00N 40°13' E 025°18'510.2
2018-Jul-15 23:28N 40°10' E 025°24'5 9.9
2018-Jul-15 22:56N 40°07' E 025°30'4 9.3
2018-Jul-15 22:30N 40°05' E 025°35'5 9.0
2018-Jul-15 22:00N 40°03' E 025°40'4 8.4
2018-Jul-15 21:30N 40°02' E 025°45'  
2018-Jul-13 11:25N 43°14' E 029°01'5 9.5
2018-Jul-13 10:53N 43°19' E 029°01'5 9.5
2018-Jul-13 10:25N 43°23' E 029°02'4 9.5
2018-Jul-13 10:00N 43°27' E 029°02'5 9.3
2018-Jul-13 09:30N 43°32' E 029°02'5 9.3
2018-Jul-13 09:00N 43°37' E 029°02'5 9.3
2018-Jul-13 08:30N 43°41' E 029°01'5 9.0
2018-Jul-13 08:00N 43°46' E 029°01'5 9.0
2018-Jul-13 07:30N 43°50' E 029°01'4 9.0
2018-Jul-13 07:00N 43°55' E 029°01'5 9.1
2018-Jul-13 06:30N 43°59' E 029°00'5 9.3
2018-Jul-13 06:00N 44°04' E 029°00'5 9.2
2018-Jul-13 05:30N 44°07' E 028°56'5 9.2
2018-Jul-13 05:00N 44°11' E 028°52'5 9.2
2018-Jul-13 04:30N 44°14' E 028°47'5 9.3
2018-Jul-13 04:00N 44°17' E 028°43'3 6.1
2018-Jul-13 03:30N 44°20' E 028°40'0 0.3
2018-Jul-13 03:00N 44°20' E 028°40'0 0.0
2018-Jul-13 02:30N 44°20' E 028°40'0 0.0
2018-Jul-13 02:00N 44°20' E 028°40'0 0.0
2018-Jul-13 01:30N 44°20' E 028°40'0 0.0
2018-Jul-13 01:00N 44°20' E 028°40'0 0.0
2018-Jul-13 00:30N 44°20' E 028°40'0 0.0
2018-Jul-13 00:00N 44°20' E 028°40'0 0.0
2018-Jul-12 23:30N 44°20' E 028°40'0 0.0
2018-Jul-12 23:00N 44°20' E 028°40'0 0.0
2018-Jul-12 22:30N 44°20' E 028°40'0 0.0
2018-Jul-12 22:00N 44°20' E 028°40'0 0.0
2018-Jul-12 21:30N 44°20' E 028°40'0 0.0
2018-Jul-12 21:00N 44°20' E 028°40'0 0.0
2018-Jul-12 20:30N 44°20' E 028°40'0 0.0
2018-Jul-12 20:00N 44°20' E 028°40'0 0.0
2018-Jul-12 19:30N 44°20' E 028°40'0 0.0
2018-Jul-12 19:00N 44°20' E 028°40'0 0.0
2018-Jul-12 18:29N 44°20' E 028°40'0 0.0
2018-Jul-12 18:00N 44°20' E 028°40'0 0.0
2018-Jul-12 17:30N 44°20' E 028°40'0 0.0
2018-Jul-12 17:00N 44°20' E 028°40'0 0.0
2018-Jul-12 16:30N 44°20' E 028°40'0 0.0
2018-Jul-12 16:00N 44°20' E 028°40'0 0.0
2018-Jul-12 15:30N 44°20' E 028°40'0 0.0
2018-Jul-12 15:00N 44°20' E 028°40'0 0.0
2018-Jul-12 14:30N 44°20' E 028°40'0 0.0
2018-Jul-12 14:00N 44°20' E 028°40'0 0.0
2018-Jul-12 13:30N 44°20' E 028°40'0 0.0
2018-Jul-12 13:00N 44°20' E 028°40'0 0.0
2018-Jul-12 12:30N 44°20' E 028°40'0 0.0
2018-Jul-12 12:00N 44°20' E 028°40'0 0.0
2018-Jul-12 11:30N 44°20' E 028°40'0 0.0
2018-Jul-12 11:00N 44°20' E 028°40'0 0.0
2018-Jul-12 10:30N 44°20' E 028°40'0 0.0
2018-Jul-12 10:00N 44°20' E 028°40'0 0.0
2018-Jul-12 09:30N 44°20' E 028°40'0 0.0
2018-Jul-12 09:00N 44°20' E 028°40'0 0.0
2018-Jul-12 08:30N 44°20' E 028°40'0 0.0
2018-Jul-12 08:00N 44°20' E 028°40'0 0.0
2018-Jul-12 07:30N 44°20' E 028°40'0 0.0
2018-Jul-12 07:00N 44°20' E 028°40'0 0.0
2018-Jul-12 06:30N 44°20' E 028°40'0 0.0
2018-Jul-12 06:00N 44°20' E 028°40'0 0.0
2018-Jul-12 05:30N 44°20' E 028°40'0 0.0
2018-Jul-12 05:00N 44°20' E 028°40'0 0.0
2018-Jul-12 04:30N 44°20' E 028°40'0 0.0
2018-Jul-12 04:00N 44°20' E 028°40'0 0.0
2018-Jul-12 03:30N 44°20' E 028°40'0 0.0
2018-Jul-12 03:00N 44°20' E 028°40'0 0.0
2018-Jul-12 02:30N 44°20' E 028°40'0 0.0
2018-Jul-12 02:00N 44°20' E 028°40'0 0.0
2018-Jul-12 01:30N 44°20' E 028°40'0 0.0
2018-Jul-12 01:00N 44°20' E 028°40'0 0.0
2018-Jul-12 00:30N 44°20' E 028°40'0 0.1
2018-Jul-12 00:00N 44°20' E 028°40'1 1.7
2018-Jul-11 23:30N 44°20' E 028°41'3 5.5
2018-Jul-11 23:00N 44°17' E 028°44'1 3.0
2018-Jul-11 22:30N 44°16' E 028°45'0 0.5
2018-Jul-11 22:00N 44°17' E 028°45'0 1.0
2018-Jul-11 21:30N 44°16' E 028°45'5 9.8
2018-Jul-11 21:00N 44°13' E 028°50'510.1
2018-Jul-11 20:30N 44°09' E 028°54'510.1
2018-Jul-11 20:00N 44°05' E 028°59'510.7
2018-Jul-11 19:30N 43°59' E 028°60'510.7
2018-Jul-11 19:00N 43°54' E 029°01'510.8
2018-Jul-11 18:30N 43°49' E 029°02'510.7
2018-Jul-11 18:00N 43°43' E 029°02'510.7
2018-Jul-11 17:30N 43°38' E 029°02'  

Dump ship's entire track history